sensor_id;sensor_type;location;lat;lon;timestamp;P1;durP1;ratioP1;P2;durP2;ratioP2
4517;SDS011;2271;49.464;11.070;2023-08-17T00:00:08;6.75;;;4.32;;
4517;SDS011;2271;49.464;11.070;2023-08-17T00:02:35;4.15;;;3.60;;
4517;SDS011;2271;49.464;11.070;2023-08-17T00:05:01;3.75;;;3.35;;
4517;SDS011;2271;49.464;11.070;2023-08-17T00:07:26;4.82;;;4.00;;
4517;SDS011;2271;49.464;11.070;2023-08-17T00:09:52;5.47;;;4.03;;
4517;SDS011;2271;49.464;11.070;2023-08-17T00:12:18;4.68;;;3.88;;
4517;SDS011;2271;49.464;11.070;2023-08-17T00:14:44;4.18;;;3.47;;
4517;SDS011;2271;49.464;11.070;2023-08-17T00:17:09;4.07;;;3.70;;
4517;SDS011;2271;49.464;11.070;2023-08-17T00:19:35;5.25;;;3.90;;
4517;SDS011;2271;49.464;11.070;2023-08-17T00:22:04;4.20;;;3.72;;
4517;SDS011;2271;49.464;11.070;2023-08-17T00:24:30;5.82;;;3.63;;
4517;SDS011;2271;49.464;11.070;2023-08-17T00:26:55;5.10;;;3.88;;
4517;SDS011;2271;49.464;11.070;2023-08-17T00:29:21;6.28;;;3.95;;
4517;SDS011;2271;49.464;11.070;2023-08-17T00:31:47;4.85;;;4.03;;
4517;SDS011;2271;49.464;11.070;2023-08-17T00:34:13;4.57;;;4.10;;
4517;SDS011;2271;49.464;11.070;2023-08-17T00:36:38;5.45;;;4.28;;
4517;SDS011;2271;49.464;11.070;2023-08-17T00:39:04;5.25;;;4.07;;
4517;SDS011;2271;49.464;11.070;2023-08-17T00:41:30;6.00;;;4.05;;
4517;SDS011;2271;49.464;11.070;2023-08-17T00:43:56;4.07;;;3.67;;
4517;SDS011;2271;49.464;11.070;2023-08-17T00:46:22;5.28;;;4.00;;
4517;SDS011;2271;49.464;11.070;2023-08-17T00:48:48;4.55;;;4.15;;
4517;SDS011;2271;49.464;11.070;2023-08-17T00:51:14;5.10;;;4.00;;
4517;SDS011;2271;49.464;11.070;2023-08-17T00:53:40;3.90;;;3.58;;
4517;SDS011;2271;49.464;11.070;2023-08-17T00:56:07;4.90;;;4.38;;
4517;SDS011;2271;49.464;11.070;2023-08-17T00:58:33;7.00;;;4.38;;
4517;SDS011;2271;49.464;11.070;2023-08-17T01:00:59;5.90;;;3.65;;
4517;SDS011;2271;49.464;11.070;2023-08-17T01:03:27;5.55;;;4.78;;
4517;SDS011;2271;49.464;11.070;2023-08-17T01:05:54;6.25;;;4.10;;
4517;SDS011;2271;49.464;11.070;2023-08-17T01:08:21;5.05;;;4.53;;
4517;SDS011;2271;49.464;11.070;2023-08-17T01:11:11;6.38;;;4.25;;
4517;SDS011;2271;49.464;11.070;2023-08-17T01:13:47;5.10;;;4.60;;
4517;SDS011;2271;49.464;11.070;2023-08-17T01:16:38;4.70;;;3.88;;
4517;SDS011;2271;49.464;11.070;2023-08-17T01:19:11;4.88;;;3.97;;
4517;SDS011;2271;49.464;11.070;2023-08-17T01:21:50;5.15;;;4.55;;
4517;SDS011;2271;49.464;11.070;2023-08-17T01:24:17;5.53;;;4.03;;
4517;SDS011;2271;49.464;11.070;2023-08-17T01:26:43;5.47;;;4.43;;
4517;SDS011;2271;49.464;11.070;2023-08-17T01:29:09;8.40;;;4.60;;
4517;SDS011;2271;49.464;11.070;2023-08-17T01:31:47;5.07;;;3.95;;
4517;SDS011;2271;49.464;11.070;2023-08-17T01:37:47;5.35;;;4.78;;
4517;SDS011;2271;49.464;11.070;2023-08-17T01:40:15;5.43;;;4.70;;
4517;SDS011;2271;49.464;11.070;2023-08-17T01:42:43;7.05;;;5.35;;
4517;SDS011;2271;49.464;11.070;2023-08-17T01:45:09;7.22;;;4.88;;
4517;SDS011;2271;49.464;11.070;2023-08-17T01:47:35;6.18;;;4.45;;
4517;SDS011;2271;49.464;11.070;2023-08-17T01:50:01;4.88;;;4.38;;
4517;SDS011;2271;49.464;11.070;2023-08-17T01:52:27;5.43;;;4.93;;
4517;SDS011;2271;49.464;11.070;2023-08-17T01:54:53;6.05;;;5.18;;
4517;SDS011;2271;49.464;11.070;2023-08-17T01:57:19;6.40;;;4.32;;
4517;SDS011;2271;49.464;11.070;2023-08-17T01:59:45;5.53;;;4.38;;
4517;SDS011;2271;49.464;11.070;2023-08-17T02:02:11;5.38;;;4.20;;
4517;SDS011;2271;49.464;11.070;2023-08-17T02:04:39;4.20;;;3.80;;
4517;SDS011;2271;49.464;11.070;2023-08-17T02:07:05;4.35;;;3.95;;
4517;SDS011;2271;49.464;11.070;2023-08-17T02:09:31;4.53;;;4.05;;
4517;SDS011;2271;49.464;11.070;2023-08-17T02:11:56;5.55;;;4.72;;
4517;SDS011;2271;49.464;11.070;2023-08-17T02:14:22;4.70;;;4.30;;
4517;SDS011;2271;49.464;11.070;2023-08-17T02:16:48;7.68;;;5.25;;
4517;SDS011;2271;49.464;11.070;2023-08-17T02:19:14;5.15;;;4.57;;
4517;SDS011;2271;49.464;11.070;2023-08-17T02:21:39;5.20;;;3.92;;
4517;SDS011;2271;49.464;11.070;2023-08-17T02:24:05;4.88;;;4.43;;
4517;SDS011;2271;49.464;11.070;2023-08-17T02:26:31;5.93;;;4.38;;
4517;SDS011;2271;49.464;11.070;2023-08-17T02:28:57;5.68;;;4.15;;
4517;SDS011;2271;49.464;11.070;2023-08-17T02:31:22;6.60;;;4.78;;
4517;SDS011;2271;49.464;11.070;2023-08-17T02:33:48;5.88;;;5.25;;
4517;SDS011;2271;49.464;11.070;2023-08-17T02:36:14;6.13;;;4.22;;
4517;SDS011;2271;49.464;11.070;2023-08-17T02:38:39;4.90;;;4.25;;
4517;SDS011;2271;49.464;11.070;2023-08-17T02:41:05;5.80;;;4.40;;
4517;SDS011;2271;49.464;11.070;2023-08-17T02:43:31;5.93;;;4.43;;
4517;SDS011;2271;49.464;11.070;2023-08-17T02:45:56;5.13;;;4.45;;
4517;SDS011;2271;49.464;11.070;2023-08-17T02:48:24;6.10;;;4.70;;
4517;SDS011;2271;49.464;11.070;2023-08-17T02:50:50;5.72;;;4.53;;
4517;SDS011;2271;49.464;11.070;2023-08-17T02:53:15;6.25;;;4.60;;
4517;SDS011;2271;49.464;11.070;2023-08-17T02:55:41;6.35;;;4.75;;
4517;SDS011;2271;49.464;11.070;2023-08-17T02:58:07;7.75;;;5.30;;
4517;SDS011;2271;49.464;11.070;2023-08-17T03:00:33;5.47;;;4.97;;
4517;SDS011;2271;49.464;11.070;2023-08-17T03:02:59;4.82;;;4.32;;
4517;SDS011;2271;49.464;11.070;2023-08-17T03:05:24;4.45;;;4.05;;
4517;SDS011;2271;49.464;11.070;2023-08-17T03:07:50;4.43;;;4.07;;
4517;SDS011;2271;49.464;11.070;2023-08-17T03:10:16;5.78;;;5.03;;
4517;SDS011;2271;49.464;11.070;2023-08-17T03:12:42;5.50;;;4.88;;
4517;SDS011;2271;49.464;11.070;2023-08-17T03:15:08;7.45;;;4.93;;
4517;SDS011;2271;49.464;11.070;2023-08-17T03:17:34;5.38;;;4.82;;
4517;SDS011;2271;49.464;11.070;2023-08-17T03:19:59;5.03;;;4.53;;
4517;SDS011;2271;49.464;11.070;2023-08-17T03:22:25;8.27;;;5.22;;
4517;SDS011;2271;49.464;11.070;2023-08-17T03:24:51;5.18;;;4.72;;
4517;SDS011;2271;49.464;11.070;2023-08-17T03:27:19;9.23;;;5.40;;
4517;SDS011;2271;49.464;11.070;2023-08-17T03:29:45;5.25;;;4.75;;
4517;SDS011;2271;49.464;11.070;2023-08-17T03:32:11;6.10;;;3.67;;
4517;SDS011;2271;49.464;11.070;2023-08-17T03:34:36;4.68;;;4.07;;
4517;SDS011;2271;49.464;11.070;2023-08-17T03:37:03;4.60;;;4.18;;
4517;SDS011;2271;49.464;11.070;2023-08-17T03:39:30;7.10;;;4.72;;
4517;SDS011;2271;49.464;11.070;2023-08-17T03:41:56;7.30;;;4.75;;
4517;SDS011;2271;49.464;11.070;2023-08-17T03:44:21;5.28;;;4.78;;
4517;SDS011;2271;49.464;11.070;2023-08-17T03:46:47;8.13;;;4.88;;
4517;SDS011;2271;49.464;11.070;2023-08-17T03:49:13;5.00;;;4.47;;
4517;SDS011;2271;49.464;11.070;2023-08-17T03:51:39;4.97;;;4.57;;
4517;SDS011;2271;49.464;11.070;2023-08-17T03:54:05;6.18;;;4.93;;
4517;SDS011;2271;49.464;11.070;2023-08-17T03:56:31;5.30;;;4.78;;
4517;SDS011;2271;49.464;11.070;2023-08-17T03:58:56;5.70;;;5.15;;
4517;SDS011;2271;49.464;11.070;2023-08-17T04:01:22;5.50;;;4.40;;
4517;SDS011;2271;49.464;11.070;2023-08-17T04:03:48;5.40;;;4.88;;
4517;SDS011;2271;49.464;11.070;2023-08-17T04:06:14;7.72;;;5.57;;
4517;SDS011;2271;49.464;11.070;2023-08-17T04:08:40;6.22;;;4.85;;
4517;SDS011;2271;49.464;11.070;2023-08-17T04:11:05;7.55;;;4.75;;
4517;SDS011;2271;49.464;11.070;2023-08-17T04:13:31;5.30;;;4.68;;
4517;SDS011;2271;49.464;11.070;2023-08-17T04:15:57;6.65;;;5.00;;
4517;SDS011;2271;49.464;11.070;2023-08-17T04:18:23;7.50;;;5.20;;
4517;SDS011;2271;49.464;11.070;2023-08-17T04:20:48;6.82;;;4.65;;
4517;SDS011;2271;49.464;11.070;2023-08-17T04:23:15;6.97;;;5.15;;
4517;SDS011;2271;49.464;11.070;2023-08-17T04:25:41;5.15;;;4.60;;
4517;SDS011;2271;49.464;11.070;2023-08-17T04:28:08;4.72;;;4.28;;
4517;SDS011;2271;49.464;11.070;2023-08-17T04:30:34;5.32;;;4.78;;
4517;SDS011;2271;49.464;11.070;2023-08-17T04:33:00;5.45;;;4.95;;
4517;SDS011;2271;49.464;11.070;2023-08-17T04:35:25;6.88;;;5.13;;
4517;SDS011;2271;49.464;11.070;2023-08-17T04:37:51;5.22;;;4.38;;
4517;SDS011;2271;49.464;11.070;2023-08-17T04:40:17;6.85;;;5.07;;
4517;SDS011;2271;49.464;11.070;2023-08-17T04:42:43;6.38;;;4.80;;
4517;SDS011;2271;49.464;11.070;2023-08-17T04:45:09;7.80;;;4.57;;
4517;SDS011;2271;49.464;11.070;2023-08-17T04:47:34;6.15;;;4.85;;
4517;SDS011;2271;49.464;11.070;2023-08-17T04:50:03;6.90;;;5.40;;
4517;SDS011;2271;49.464;11.070;2023-08-17T04:52:29;5.78;;;5.18;;
4517;SDS011;2271;49.464;11.070;2023-08-17T04:54:55;5.97;;;5.00;;
4517;SDS011;2271;49.464;11.070;2023-08-17T04:57:21;5.10;;;4.60;;
4517;SDS011;2271;49.464;11.070;2023-08-17T04:59:46;7.03;;;5.30;;
4517;SDS011;2271;49.464;11.070;2023-08-17T05:02:12;5.00;;;4.47;;
4517;SDS011;2271;49.464;11.070;2023-08-17T05:04:38;6.80;;;5.20;;
4517;SDS011;2271;49.464;11.070;2023-08-17T05:07:05;4.80;;;4.40;;
4517;SDS011;2271;49.464;11.070;2023-08-17T05:09:30;5.30;;;4.80;;
4517;SDS011;2271;49.464;11.070;2023-08-17T05:11:56;5.18;;;4.70;;
4517;SDS011;2271;49.464;11.070;2023-08-17T05:14:22;5.70;;;5.10;;
4517;SDS011;2271;49.464;11.070;2023-08-17T05:16:47;8.20;;;5.07;;
4517;SDS011;2271;49.464;11.070;2023-08-17T05:19:13;7.20;;;5.57;;
4517;SDS011;2271;49.464;11.070;2023-08-17T05:21:39;5.18;;;4.68;;
4517;SDS011;2271;49.464;11.070;2023-08-17T05:24:05;6.20;;;5.40;;
4517;SDS011;2271;49.464;11.070;2023-08-17T05:26:31;6.05;;;5.10;;
4517;SDS011;2271;49.464;11.070;2023-08-17T05:28:57;5.85;;;4.88;;
4517;SDS011;2271;49.464;11.070;2023-08-17T05:31:23;6.18;;;4.75;;
4517;SDS011;2271;49.464;11.070;2023-08-17T05:33:48;12.75;;;5.47;;
4517;SDS011;2271;49.464;11.070;2023-08-17T05:36:14;5.32;;;4.82;;
4517;SDS011;2271;49.464;11.070;2023-08-17T05:38:40;8.75;;;5.43;;
4517;SDS011;2271;49.464;11.070;2023-08-17T05:41:05;9.23;;;5.53;;
4517;SDS011;2271;49.464;11.070;2023-08-17T05:43:31;5.03;;;4.53;;
4517;SDS011;2271;49.464;11.070;2023-08-17T05:45:57;5.75;;;4.72;;
4517;SDS011;2271;49.464;11.070;2023-08-17T05:48:24;5.30;;;4.60;;
4517;SDS011;2271;49.464;11.070;2023-08-17T05:50:50;6.30;;;4.88;;
4517;SDS011;2271;49.464;11.070;2023-08-17T05:53:16;5.35;;;4.80;;
4517;SDS011;2271;49.464;11.070;2023-08-17T05:55:41;4.85;;;4.45;;
4517;SDS011;2271;49.464;11.070;2023-08-17T05:58:07;7.72;;;4.65;;
4517;SDS011;2271;49.464;11.070;2023-08-17T06:00:33;6.85;;;4.88;;
4517;SDS011;2271;49.464;11.070;2023-08-17T06:02:58;5.25;;;4.53;;
4517;SDS011;2271;49.464;11.070;2023-08-17T06:05:27;9.48;;;4.68;;
4517;SDS011;2271;49.464;11.070;2023-08-17T06:07:54;7.20;;;5.28;;
4517;SDS011;2271;49.464;11.070;2023-08-17T06:10:20;4.72;;;4.32;;
4517;SDS011;2271;49.464;11.070;2023-08-17T06:12:50;5.25;;;4.75;;
4517;SDS011;2271;49.464;11.070;2023-08-17T06:15:17;5.43;;;4.22;;
4517;SDS011;2271;49.464;11.070;2023-08-17T06:17:42;6.15;;;5.10;;
4517;SDS011;2271;49.464;11.070;2023-08-17T06:20:08;8.38;;;5.43;;
4517;SDS011;2271;49.464;11.070;2023-08-17T06:22:35;6.60;;;5.03;;
4517;SDS011;2271;49.464;11.070;2023-08-17T06:25:00;7.95;;;5.18;;
4517;SDS011;2271;49.464;11.070;2023-08-17T06:27:26;5.93;;;5.15;;
4517;SDS011;2271;49.464;11.070;2023-08-17T06:29:52;4.97;;;4.47;;
4517;SDS011;2271;49.464;11.070;2023-08-17T06:32:18;5.70;;;4.80;;
4517;SDS011;2271;49.464;11.070;2023-08-17T06:34:43;5.38;;;4.88;;
4517;SDS011;2271;49.464;11.070;2023-08-17T06:37:09;7.40;;;5.05;;
4517;SDS011;2271;49.464;11.070;2023-08-17T06:39:35;5.78;;;5.18;;
4517;SDS011;2271;49.464;11.070;2023-08-17T06:42:00;6.00;;;5.22;;
4517;SDS011;2271;49.464;11.070;2023-08-17T06:44:26;6.38;;;5.45;;
4517;SDS011;2271;49.464;11.070;2023-08-17T06:46:51;6.85;;;5.70;;
4517;SDS011;2271;49.464;11.070;2023-08-17T06:49:17;6.38;;;4.97;;
4517;SDS011;2271;49.464;11.070;2023-08-17T06:51:43;6.63;;;5.18;;
4517;SDS011;2271;49.464;11.070;2023-08-17T06:54:09;5.30;;;4.72;;
4517;SDS011;2271;49.464;11.070;2023-08-17T06:56:34;7.72;;;5.18;;
4517;SDS011;2271;49.464;11.070;2023-08-17T06:59:00;5.65;;;5.15;;
4517;SDS011;2271;49.464;11.070;2023-08-17T07:01:26;6.82;;;4.78;;
4517;SDS011;2271;49.464;11.070;2023-08-17T07:03:51;7.40;;;4.82;;
4517;SDS011;2271;49.464;11.070;2023-08-17T07:06:17;5.65;;;4.90;;
4517;SDS011;2271;49.464;11.070;2023-08-17T07:08:43;4.70;;;4.30;;
4517;SDS011;2271;49.464;11.070;2023-08-17T07:11:09;5.95;;;5.35;;
4517;SDS011;2271;49.464;11.070;2023-08-17T07:13:34;5.28;;;4.78;;
4517;SDS011;2271;49.464;11.070;2023-08-17T07:16:00;5.78;;;4.70;;
4517;SDS011;2271;49.464;11.070;2023-08-17T07:18:25;5.80;;;4.72;;
4517;SDS011;2271;49.464;11.070;2023-08-17T07:20:51;4.93;;;4.45;;
4517;SDS011;2271;49.464;11.070;2023-08-17T07:23:17;4.60;;;4.22;;
4517;SDS011;2271;49.464;11.070;2023-08-17T07:25:42;5.32;;;4.82;;
4517;SDS011;2271;49.464;11.070;2023-08-17T07:28:09;4.80;;;4.32;;
4517;SDS011;2271;49.464;11.070;2023-08-17T07:30:35;6.45;;;5.43;;
4517;SDS011;2271;49.464;11.070;2023-08-17T07:33:00;4.85;;;4.38;;
4517;SDS011;2271;49.464;11.070;2023-08-17T07:35:26;5.38;;;4.97;;
4517;SDS011;2271;49.464;11.070;2023-08-17T07:37:52;6.07;;;5.13;;
4517;SDS011;2271;49.464;11.070;2023-08-17T07:40:17;5.22;;;4.75;;
4517;SDS011;2271;49.464;11.070;2023-08-17T07:42:44;5.35;;;4.85;;
4517;SDS011;2271;49.464;11.070;2023-08-17T07:45:13;5.85;;;5.20;;
4517;SDS011;2271;49.464;11.070;2023-08-17T07:47:39;8.23;;;5.90;;
4517;SDS011;2271;49.464;11.070;2023-08-17T07:50:04;5.43;;;4.93;;
4517;SDS011;2271;49.464;11.070;2023-08-17T07:52:30;5.30;;;4.80;;
4517;SDS011;2271;49.464;11.070;2023-08-17T07:54:56;8.38;;;5.18;;
4517;SDS011;2271;49.464;11.070;2023-08-17T07:57:22;5.40;;;5.00;;
4517;SDS011;2271;49.464;11.070;2023-08-17T07:59:47;5.88;;;4.75;;
4517;SDS011;2271;49.464;11.070;2023-08-17T08:02:13;5.57;;;5.07;;
4517;SDS011;2271;49.464;11.070;2023-08-17T08:04:39;6.07;;;5.22;;
4517;SDS011;2271;49.464;11.070;2023-08-17T08:07:05;6.38;;;4.80;;
4517;SDS011;2271;49.464;11.070;2023-08-17T08:09:31;6.00;;;5.50;;
4517;SDS011;2271;49.464;11.070;2023-08-17T08:11:56;5.40;;;4.90;;
4517;SDS011;2271;49.464;11.070;2023-08-17T08:14:22;5.70;;;5.20;;
4517;SDS011;2271;49.464;11.070;2023-08-17T08:16:48;5.93;;;5.32;;
4517;SDS011;2271;49.464;11.070;2023-08-17T08:19:13;5.75;;;5.25;;
4517;SDS011;2271;49.464;11.070;2023-08-17T08:21:39;5.97;;;5.47;;
4517;SDS011;2271;49.464;11.070;2023-08-17T08:24:05;9.88;;;5.10;;
4517;SDS011;2271;49.464;11.070;2023-08-17T08:26:30;5.50;;;5.00;;
4517;SDS011;2271;49.464;11.070;2023-08-17T08:28:56;6.80;;;5.30;;
4517;SDS011;2271;49.464;11.070;2023-08-17T08:31:22;7.05;;;4.97;;
4517;SDS011;2271;49.464;11.070;2023-08-17T08:33:47;6.13;;;4.82;;
4517;SDS011;2271;49.464;11.070;2023-08-17T08:36:13;6.82;;;5.43;;
4517;SDS011;2271;49.464;11.070;2023-08-17T08:38:39;5.57;;;4.95;;
4517;SDS011;2271;49.464;11.070;2023-08-17T08:41:05;5.43;;;4.70;;
4517;SDS011;2271;49.464;11.070;2023-08-17T08:43:33;7.55;;;5.40;;
4517;SDS011;2271;49.464;11.070;2023-08-17T08:45:59;6.32;;;5.72;;
4517;SDS011;2271;49.464;11.070;2023-08-17T08:48:26;5.45;;;5.00;;
4517;SDS011;2271;49.464;11.070;2023-08-17T08:50:52;5.07;;;4.57;;
4517;SDS011;2271;49.464;11.070;2023-08-17T08:53:22;6.80;;;5.20;;
4517;SDS011;2271;49.464;11.070;2023-08-17T08:55:57;5.60;;;5.18;;
4517;SDS011;2271;49.464;11.070;2023-08-17T08:58:27;6.53;;;5.32;;
4517;SDS011;2271;49.464;11.070;2023-08-17T09:00:54;5.72;;;4.88;;
4517;SDS011;2271;49.464;11.070;2023-08-17T09:03:23;6.40;;;5.15;;
4517;SDS011;2271;49.464;11.070;2023-08-17T09:05:50;11.10;;;5.72;;
4517;SDS011;2271;49.464;11.070;2023-08-17T09:08:20;6.03;;;5.53;;
4517;SDS011;2271;49.464;11.070;2023-08-17T09:10:47;5.93;;;5.32;;
4517;SDS011;2271;49.464;11.070;2023-08-17T09:13:14;5.47;;;4.97;;
4517;SDS011;2271;49.464;11.070;2023-08-17T09:15:40;6.80;;;5.45;;
4517;SDS011;2271;49.464;11.070;2023-08-17T09:18:06;8.00;;;6.88;;
4517;SDS011;2271;49.464;11.070;2023-08-17T09:23:17;6.30;;;5.68;;
4517;SDS011;2271;49.464;11.070;2023-08-17T09:25:47;6.07;;;5.47;;
4517;SDS011;2271;49.464;11.070;2023-08-17T09:28:15;6.85;;;5.75;;
4517;SDS011;2271;49.464;11.070;2023-08-17T09:31:15;6.32;;;5.72;;
4517;SDS011;2271;49.464;11.070;2023-08-17T09:33:33;6.93;;;5.72;;
4517;SDS011;2271;49.464;11.070;2023-08-17T09:36:00;6.22;;;5.72;;
4517;SDS011;2271;49.464;11.070;2023-08-17T09:38:26;5.80;;;5.30;;
4517;SDS011;2271;49.464;11.070;2023-08-17T09:40:52;6.53;;;5.45;;
4517;SDS011;2271;49.464;11.070;2023-08-17T09:43:18;6.65;;;6.00;;
4517;SDS011;2271;49.464;11.070;2023-08-17T09:45:46;9.05;;;5.93;;
4517;SDS011;2271;49.464;11.070;2023-08-17T09:48:18;6.05;;;5.55;;
4517;SDS011;2271;49.464;11.070;2023-08-17T09:50:45;6.65;;;5.95;;
4517;SDS011;2271;49.464;11.070;2023-08-17T09:53:15;7.35;;;5.60;;
4517;SDS011;2271;49.464;11.070;2023-08-17T09:55:42;6.30;;;5.70;;
4517;SDS011;2271;49.464;11.070;2023-08-17T09:58:12;7.32;;;6.07;;
4517;SDS011;2271;49.464;11.070;2023-08-17T10:00:45;6.88;;;6.28;;
4517;SDS011;2271;49.464;11.070;2023-08-17T10:03:14;6.40;;;5.90;;
4517;SDS011;2271;49.464;11.070;2023-08-17T10:05:40;7.68;;;5.97;;
4517;SDS011;2271;49.464;11.070;2023-08-17T10:08:08;6.55;;;5.95;;
4517;SDS011;2271;49.464;11.070;2023-08-17T10:10:38;6.72;;;5.90;;
4517;SDS011;2271;49.464;11.070;2023-08-17T10:16:25;6.95;;;6.25;;
4517;SDS011;2271;49.464;11.070;2023-08-17T10:18:55;6.53;;;5.93;;
4517;SDS011;2271;49.464;11.070;2023-08-17T10:21:23;6.47;;;5.88;;
4517;SDS011;2271;49.464;11.070;2023-08-17T10:23:54;6.43;;;5.88;;
4517;SDS011;2271;49.464;11.070;2023-08-17T10:26:22;7.40;;;5.85;;
4517;SDS011;2271;49.464;11.070;2023-08-17T10:28:49;7.00;;;6.30;;
4517;SDS011;2271;49.464;11.070;2023-08-17T10:31:16;8.60;;;6.22;;
4517;SDS011;2271;49.464;11.070;2023-08-17T10:33:42;10.77;;;6.32;;
4517;SDS011;2271;49.464;11.070;2023-08-17T10:36:11;7.22;;;6.53;;
4517;SDS011;2271;49.464;11.070;2023-08-17T10:38:38;6.82;;;6.18;;
4517;SDS011;2271;49.464;11.070;2023-08-17T10:41:08;6.85;;;6.28;;
4517;SDS011;2271;49.464;11.070;2023-08-17T10:43:34;6.30;;;5.82;;
4517;SDS011;2271;49.464;11.070;2023-08-17T10:46:20;7.05;;;6.38;;
4517;SDS011;2271;49.464;11.070;2023-08-17T10:48:45;6.70;;;6.10;;
4517;SDS011;2271;49.464;11.070;2023-08-17T10:51:11;6.53;;;5.93;;
4517;SDS011;2271;49.464;11.070;2023-08-17T10:53:38;8.02;;;6.35;;
4517;SDS011;2271;49.464;11.070;2023-08-17T10:56:10;6.38;;;5.78;;
4517;SDS011;2271;49.464;11.070;2023-08-17T10:58:38;6.25;;;5.70;;
4517;SDS011;2271;49.464;11.070;2023-08-17T11:01:03;6.30;;;5.80;;
4517;SDS011;2271;49.464;11.070;2023-08-17T11:03:30;5.88;;;5.40;;
4517;SDS011;2271;49.464;11.070;2023-08-17T11:05:56;6.90;;;5.70;;
4517;SDS011;2271;49.464;11.070;2023-08-17T11:08:23;5.82;;;5.28;;
4517;SDS011;2271;49.464;11.070;2023-08-17T11:13:27;6.25;;;5.75;;
4517;SDS011;2271;49.464;11.070;2023-08-17T11:15:55;8.90;;;6.15;;
4517;SDS011;2271;49.464;11.070;2023-08-17T11:18:22;7.25;;;5.70;;
4517;SDS011;2271;49.464;11.070;2023-08-17T11:20:48;6.40;;;5.40;;
4517;SDS011;2271;49.464;11.070;2023-08-17T11:23:15;6.82;;;6.22;;
4517;SDS011;2271;49.464;11.070;2023-08-17T11:25:41;5.93;;;5.45;;
4517;SDS011;2271;49.464;11.070;2023-08-17T11:28:07;6.68;;;5.50;;
4517;SDS011;2271;49.464;11.070;2023-08-17T11:30:34;6.47;;;5.95;;
4517;SDS011;2271;49.464;11.070;2023-08-17T11:33:03;6.35;;;4.88;;
4517;SDS011;2271;49.464;11.070;2023-08-17T11:35:28;6.85;;;5.60;;
4517;SDS011;2271;49.464;11.070;2023-08-17T11:37:54;9.50;;;5.75;;
4517;SDS011;2271;49.464;11.070;2023-08-17T11:40:20;7.68;;;5.47;;
4517;SDS011;2271;49.464;11.070;2023-08-17T11:42:46;5.70;;;5.20;;
4517;SDS011;2271;49.464;11.070;2023-08-17T11:45:12;5.80;;;5.30;;
4517;SDS011;2271;49.464;11.070;2023-08-17T11:47:39;5.30;;;4.80;;
4517;SDS011;2271;49.464;11.070;2023-08-17T11:50:06;6.13;;;5.05;;
4517;SDS011;2271;49.464;11.070;2023-08-17T11:52:34;6.97;;;5.38;;
4517;SDS011;2271;49.464;11.070;2023-08-17T11:55:07;6.13;;;5.40;;
4517;SDS011;2271;49.464;11.070;2023-08-17T11:57:36;6.32;;;5.72;;
4517;SDS011;2271;49.464;11.070;2023-08-17T12:00:03;5.93;;;5.43;;
4517;SDS011;2271;49.464;11.070;2023-08-17T12:02:37;6.13;;;5.55;;
4517;SDS011;2271;49.464;11.070;2023-08-17T12:05:07;7.45;;;5.63;;
4517;SDS011;2271;49.464;11.070;2023-08-17T12:07:34;6.40;;;5.75;;
4517;SDS011;2271;49.464;11.070;2023-08-17T12:10:02;6.00;;;5.45;;
4517;SDS011;2271;49.464;11.070;2023-08-17T12:12:28;6.60;;;5.93;;
4517;SDS011;2271;49.464;11.070;2023-08-17T12:14:54;5.68;;;5.22;;
4517;SDS011;2271;49.464;11.070;2023-08-17T12:17:20;9.20;;;6.03;;
4517;SDS011;2271;49.464;11.070;2023-08-17T12:19:50;6.13;;;5.63;;
4517;SDS011;2271;49.464;11.070;2023-08-17T12:22:22;6.47;;;5.85;;
4517;SDS011;2271;49.464;11.070;2023-08-17T12:24:49;5.78;;;5.28;;
4517;SDS011;2271;49.464;11.070;2023-08-17T12:27:15;5.70;;;5.20;;
4517;SDS011;2271;49.464;11.070;2023-08-17T12:29:50;5.82;;;5.38;;
4517;SDS011;2271;49.464;11.070;2023-08-17T12:32:17;4.93;;;4.53;;
4517;SDS011;2271;49.464;11.070;2023-08-17T12:34:44;5.68;;;5.18;;
4517;SDS011;2271;49.464;11.070;2023-08-17T12:37:10;6.97;;;5.50;;
4517;SDS011;2271;49.464;11.070;2023-08-17T12:39:37;7.10;;;5.63;;
4517;SDS011;2271;49.464;11.070;2023-08-17T12:42:04;5.43;;;4.93;;
4517;SDS011;2271;49.464;11.070;2023-08-17T12:44:30;8.38;;;5.07;;
4517;SDS011;2271;49.464;11.070;2023-08-17T12:46:56;6.82;;;5.32;;
4517;SDS011;2271;49.464;11.070;2023-08-17T12:49:22;5.90;;;5.00;;
4517;SDS011;2271;49.464;11.070;2023-08-17T12:51:48;6.07;;;5.10;;
4517;SDS011;2271;49.464;11.070;2023-08-17T12:54:14;5.95;;;5.35;;
4517;SDS011;2271;49.464;11.070;2023-08-17T12:56:40;5.20;;;4.70;;
4517;SDS011;2271;49.464;11.070;2023-08-17T12:59:05;6.00;;;5.47;;
4517;SDS011;2271;49.464;11.070;2023-08-17T13:01:31;7.45;;;5.40;;
4517;SDS011;2271;49.464;11.070;2023-08-17T13:03:58;7.07;;;4.68;;
4517;SDS011;2271;49.464;11.070;2023-08-17T13:06:24;8.65;;;5.85;;
4517;SDS011;2271;49.464;11.070;2023-08-17T13:08:49;6.22;;;5.30;;
4517;SDS011;2271;49.464;11.070;2023-08-17T13:11:15;5.03;;;4.63;;
4517;SDS011;2271;49.464;11.070;2023-08-17T13:13:41;5.22;;;4.78;;
4517;SDS011;2271;49.464;11.070;2023-08-17T13:16:06;5.25;;;4.40;;
4517;SDS011;2271;49.464;11.070;2023-08-17T13:18:32;6.28;;;4.78;;
4517;SDS011;2271;49.464;11.070;2023-08-17T13:20:58;6.18;;;5.00;;
4517;SDS011;2271;49.464;11.070;2023-08-17T13:23:23;6.38;;;4.85;;
4517;SDS011;2271;49.464;11.070;2023-08-17T13:25:49;7.55;;;5.68;;
4517;SDS011;2271;49.464;11.070;2023-08-17T13:28:15;6.95;;;4.95;;
4517;SDS011;2271;49.464;11.070;2023-08-17T13:30:40;5.75;;;5.25;;
4517;SDS011;2271;49.464;11.070;2023-08-17T13:33:06;5.60;;;5.10;;
4517;SDS011;2271;49.464;11.070;2023-08-17T13:35:32;4.88;;;4.38;;
4517;SDS011;2271;49.464;11.070;2023-08-17T13:37:59;7.20;;;5.07;;
4517;SDS011;2271;49.464;11.070;2023-08-17T13:40:24;5.20;;;4.70;;
4517;SDS011;2271;49.464;11.070;2023-08-17T13:42:50;7.32;;;4.82;;
4517;SDS011;2271;49.464;11.070;2023-08-17T13:45:16;8.48;;;5.32;;
4517;SDS011;2271;49.464;11.070;2023-08-17T13:47:42;8.38;;;5.20;;
4517;SDS011;2271;49.464;11.070;2023-08-17T13:50:07;6.40;;;5.32;;
4517;SDS011;2271;49.464;11.070;2023-08-17T13:52:33;6.28;;;5.07;;
4517;SDS011;2271;49.464;11.070;2023-08-17T13:54:59;5.60;;;4.93;;
4517;SDS011;2271;49.464;11.070;2023-08-17T13:57:24;7.47;;;4.43;;
4517;SDS011;2271;49.464;11.070;2023-08-17T13:59:51;4.80;;;4.40;;
4517;SDS011;2271;49.464;11.070;2023-08-17T14:02:17;5.18;;;4.68;;
4517;SDS011;2271;49.464;11.070;2023-08-17T14:04:43;5.43;;;4.75;;
4517;SDS011;2271;49.464;11.070;2023-08-17T14:07:09;5.13;;;4.63;;
4517;SDS011;2271;49.464;11.070;2023-08-17T14:09:34;5.13;;;4.10;;
4517;SDS011;2271;49.464;11.070;2023-08-17T14:12:00;9.18;;;5.28;;
4517;SDS011;2271;49.464;11.070;2023-08-17T14:14:26;5.20;;;4.70;;
4517;SDS011;2271;49.464;11.070;2023-08-17T14:16:52;5.35;;;4.85;;
4517;SDS011;2271;49.464;11.070;2023-08-17T14:19:18;6.30;;;5.18;;
4517;SDS011;2271;49.464;11.070;2023-08-17T14:21:43;4.95;;;4.53;;
4517;SDS011;2271;49.464;11.070;2023-08-17T14:24:09;6.40;;;4.40;;
4517;SDS011;2271;49.464;11.070;2023-08-17T14:26:35;5.03;;;4.63;;
4517;SDS011;2271;49.464;11.070;2023-08-17T14:29:01;4.80;;;4.40;;
4517;SDS011;2271;49.464;11.070;2023-08-17T14:31:27;8.57;;;4.82;;
4517;SDS011;2271;49.464;11.070;2023-08-17T14:33:53;5.40;;;4.65;;
4517;SDS011;2271;49.464;11.070;2023-08-17T14:36:19;9.40;;;5.25;;
4517;SDS011;2271;49.464;11.070;2023-08-17T14:38:45;8.77;;;5.55;;
4517;SDS011;2271;49.464;11.070;2023-08-17T14:41:11;7.10;;;5.53;;
4517;SDS011;2271;49.464;11.070;2023-08-17T14:43:37;8.82;;;5.65;;
4517;SDS011;2271;49.464;11.070;2023-08-17T14:46:03;7.38;;;5.07;;
4517;SDS011;2271;49.464;11.070;2023-08-17T14:48:28;6.47;;;5.88;;
4517;SDS011;2271;49.464;11.070;2023-08-17T14:50:54;8.30;;;5.43;;
4517;SDS011;2271;49.464;11.070;2023-08-17T14:53:20;7.72;;;5.80;;
4517;SDS011;2271;49.464;11.070;2023-08-17T14:55:46;5.85;;;5.30;;
4517;SDS011;2271;49.464;11.070;2023-08-17T14:58:12;7.63;;;5.72;;
4517;SDS011;2271;49.464;11.070;2023-08-17T15:00:38;6.57;;;5.72;;
4517;SDS011;2271;49.464;11.070;2023-08-17T15:03:04;6.30;;;5.60;;
4517;SDS011;2271;49.464;11.070;2023-08-17T15:05:30;6.47;;;5.75;;
4517;SDS011;2271;49.464;11.070;2023-08-17T15:07:56;5.65;;;5.15;;